Time;durP1;ratioP1;P1;durP2;ratioP2;P2;SDS_P1;SDS_P2;PMS_P1;PMS_P2;Temp;Humidity;BMP_temperature;BMP_pressure;BME280_temperature;BME280_humidity;BME280_pressure;Samples;Min_cycle;Max_cycle;Signal;HPM_P1;HPM_P2
2023/11/05 00:03:57;;;;;;;2.83;1.92;;;;;;;;;;10286291;28;20068;-63
2023/11/05 00:08:56;;;;;;;3.67;1.80;;;;;;;;;;10290322;28;20064;-64
2023/11/05 00:13:55;;;;;;;2.65;2.25;;;;;;;;;;10290867;28;20068;-63
2023/11/05 00:18:53;;;;;;;1.40;1.30;;;;;;;;;;10290790;28;20117;-64
2023/11/05 00:23:51;;;;;;;1.27;1.17;;;;;;;;;;10290603;28;20099;-64
2023/11/05 00:28:51;;;;;;;1.88;1.35;;;;;;;;;;10291358;28;20493;-64
2023/11/05 00:33:49;;;;;;;4.35;2.10;;;;;;;;;;10291155;28;20068;-64
2023/11/05 00:38:48;;;;;;;1.75;1.30;;;;;;;;;;10295743;28;20072;-64
2023/11/05 00:43:46;;;;;;;2.53;1.20;;;;;;;;;;10290028;28;20071;-64
2023/11/05 00:48:47;;;;;;;1.60;1.50;;;;;;;;;;10291553;28;20126;-63
2023/11/05 00:53:45;;;;;;;1.30;1.20;;;;;;;;;;10288995;28;20068;-64
2023/11/05 00:58:44;;;;;;;1.75;1.38;;;;;;;;;;10288904;28;20072;-64
2023/11/05 01:03:42;;;;;;;1.50;1.40;;;;;;;;;;10292384;28;20041;-63
2023/11/05 01:08:42;;;;;;;3.15;1.30;;;;;;;;;;10291048;28;20073;-64
2023/11/05 01:13:41;;;;;;;1.35;1.25;;;;;;;;;;10290464;28;20095;-64
2023/11/05 01:18:39;;;;;;;1.83;1.17;;;;;;;;;;10290130;28;20072;-64
2023/11/05 01:23:37;;;;;;;3.53;1.10;;;;;;;;;;10289392;28;20068;-63
2023/11/05 01:28:38;;;;;;;2.10;1.85;;;;;;;;;;10288715;28;20073;-63
2023/11/05 01:33:37;;;;;;;1.20;0.95;;;;;;;;;;10289194;28;20057;-64
2023/11/05 01:38:35;;;;;;;2.97;1.20;;;;;;;;;;10295505;28;20072;-64
2023/11/05 01:43:33;;;;;;;2.80;1.27;;;;;;;;;;10289253;28;20082;-63
2023/11/05 01:48:33;;;;;;;1.50;1.23;;;;;;;;;;10295328;28;20077;-63
2023/11/05 01:53:31;;;;;;;4.47;1.33;;;;;;;;;;10289193;28;20080;-63
2023/11/05 01:58:30;;;;;;;1.77;1.42;;;;;;;;;;10295419;28;20076;-62
2023/11/05 02:03:28;;;;;;;1.70;1.17;;;;;;;;;;10305869;28;20049;-63
2023/11/05 02:08:28;;;;;;;1.45;1.35;;;;;;;;;;10299733;28;20398;-63
2023/11/05 02:13:26;;;;;;;4.32;1.35;;;;;;;;;;10296288;28;20076;-63
2023/11/05 02:18:25;;;;;;;2.40;1.23;;;;;;;;;;10295989;28;20088;-63
2023/11/05 02:23:24;;;;;;;1.00;1.00;;;;;;;;;;10294774;28;20036;-64
2023/11/05 02:28:23;;;;;;;1.65;1.42;;;;;;;;;;10296810;28;20071;-63
2023/11/05 02:33:21;;;;;;;1.50;1.40;;;;;;;;;;10301683;28;20041;-63
2023/11/05 02:38:19;;;;;;;1.60;1.50;;;;;;;;;;10294421;28;20075;-63
2023/11/05 02:43:19;;;;;;;1.70;1.60;;;;;;;;;;10293151;28;20061;-63
2023/11/05 02:48:17;;;;;;;2.00;1.50;;;;;;;;;;10300844;28;20478;-63
2023/11/05 02:53:16;;;;;;;1.77;1.23;;;;;;;;;;10293339;28;20076;-63
2023/11/05 02:58:14;;;;;;;1.38;1.20;;;;;;;;;;10294648;28;20072;-63
2023/11/05 03:03:14;;;;;;;1.30;1.20;;;;;;;;;;10294672;28;20068;-63
2023/11/05 03:08:12;;;;;;;1.60;1.50;;;;;;;;;;10294492;28;20076;-63
2023/11/05 03:13:11;;;;;;;2.28;1.38;;;;;;;;;;10292925;28;20075;-63
2023/11/05 03:18:09;;;;;;;2.20;1.92;;;;;;;;;;10291922;28;20076;-63
2023/11/05 03:23:09;;;;;;;2.13;1.23;;;;;;;;;;10293703;28;20068;-64
2023/11/05 03:28:07;;;;;;;1.40;1.30;;;;;;;;;;10292515;28;20084;-63
2023/11/05 03:33:06;;;;;;;1.40;1.30;;;;;;;;;;10301863;28;20494;-64
2023/11/05 03:38:04;;;;;;;2.03;1.17;;;;;;;;;;10289826;28;20491;-64
2023/11/05 03:43:04;;;;;;;1.42;1.33;;;;;;;;;;10291864;28;20051;-63
2023/11/05 03:48:02;;;;;;;0.95;0.93;;;;;;;;;;10288822;28;20072;-63
2023/11/05 03:53:01;;;;;;;1.20;1.10;;;;;;;;;;10288113;28;20068;-63
2023/11/05 03:57:59;;;;;;;1.92;1.23;;;;;;;;;;10296444;28;20087;-63
2023/11/05 04:02:58;;;;;;;1.48;1.38;;;;;;;;;;10290587;28;20040;-64
2023/11/05 04:07:57;;;;;;;1.23;1.20;;;;;;;;;;10293439;28;20076;-63
2023/11/05 04:12:55;;;;;;;7.15;1.70;;;;;;;;;;10291281;28;20072;-63
2023/11/05 04:17:53;;;;;;;1.25;1.23;;;;;;;;;;10285326;28;20080;-64
2023/11/05 04:22:53;;;;;;;1.45;1.35;;;;;;;;;;10287645;28;20075;-63
2023/11/05 04:27:51;;;;;;;2.03;1.67;;;;;;;;;;10288040;28;20077;-63
2023/11/05 04:32:49;;;;;;;1.30;1.20;;;;;;;;;;10290575;28;20091;-63
2023/11/05 04:37:47;;;;;;;4.22;1.30;;;;;;;;;;10289467;28;20506;-63
2023/11/05 04:42:47;;;;;;;2.25;1.20;;;;;;;;;;10289205;28;20506;-63
2023/11/05 04:47:45;;;;;;;2.28;1.30;;;;;;;;;;10292401;28;20069;-63
2023/11/05 04:52:43;;;;;;;6.78;1.40;;;;;;;;;;10298648;28;20498;-56
2023/11/05 04:57:42;;;;;;;1.40;1.20;;;;;;;;;;10285269;28;20077;-57
2023/11/05 05:02:41;;;;;;;2.42;1.52;;;;;;;;;;10289398;28;20079;-55
2023/11/05 05:07:40;;;;;;;2.55;2.17;;;;;;;;;;10288338;28;20072;-56
2023/11/05 05:12:38;;;;;;;2.88;2.67;;;;;;;;;;10288932;28;20072;-57
2023/11/05 05:17:36;;;;;;;1.73;1.58;;;;;;;;;;10288778;28;20099;-56
2023/11/05 05:22:36;;;;;;;3.08;1.80;;;;;;;;;;10289803;28;20099;-57
2023/11/05 05:27:34;;;;;;;1.40;1.30;;;;;;;;;;10288546;28;20076;-56
2023/11/05 05:32:32;;;;;;;2.40;1.90;;;;;;;;;;10294631;28;20071;-56
2023/11/05 05:37:31;;;;;;;1.60;1.50;;;;;;;;;;10297627;28;20474;-57
2023/11/05 05:42:30;;;;;;;3.67;1.30;;;;;;;;;;10296859;28;20069;-56
2023/11/05 05:47:29;;;;;;;1.67;1.58;;;;;;;;;;10302353;28;20559;-58
2023/11/05 05:52:28;;;;;;;1.23;1.13;;;;;;;;;;10296110;28;20132;-57
2023/11/05 05:57:26;;;;;;;1.30;1.20;;;;;;;;;;10296258;28;20064;-57
2023/11/05 06:02:25;;;;;;;1.83;1.65;;;;;;;;;;10295861;28;20064;-56
2023/11/05 06:07:25;;;;;;;1.77;1.67;;;;;;;;;;10296857;28;20535;-56
2023/11/05 06:12:24;;;;;;;1.45;1.35;;;;;;;;;;10297060;28;20083;-57
2023/11/05 06:17:22;;;;;;;1.85;1.15;;;;;;;;;;10293738;28;20083;-56
2023/11/05 06:22:22;;;;;;;1.85;1.55;;;;;;;;;;10297189;28;20079;-56
2023/11/05 06:27:20;;;;;;;2.38;1.20;;;;;;;;;;10294089;28;20060;-57
2023/11/05 06:32:19;;;;;;;1.98;1.50;;;;;;;;;;10294839;28;20078;-55
2023/11/05 06:37:17;;;;;;;1.40;1.30;;;;;;;;;;10296227;28;20067;-57
2023/11/05 06:42:17;;;;;;;2.03;1.40;;;;;;;;;;10287717;28;20068;-55
2023/11/05 06:47:15;;;;;;;2.13;1.10;;;;;;;;;;10290144;28;20496;-55
2023/11/05 06:52:14;;;;;;;4.30;1.20;;;;;;;;;;10286261;28;20071;-57
2023/11/05 06:57:12;;;;;;;2.38;2.17;;;;;;;;;;10290529;28;20080;-56
2023/11/05 07:02:13;;;;;;;1.33;1.10;;;;;;;;;;10292180;28;20087;-54
2023/11/05 07:07:11;;;;;;;4.53;1.48;;;;;;;;;;10291579;28;20527;-56
2023/11/05 07:12:11;;;;;;;3.42;1.80;;;;;;;;;;10295611;28;20535;-55
2023/11/05 07:17:09;;;;;;;1.52;1.42;;;;;;;;;;10293580;28;20604;-57
2023/11/05 07:22:10;;;;;;;2.92;1.70;;;;;;;;;;10291686;28;20084;-56
2023/11/05 07:27:09;;;;;;;1.48;1.38;;;;;;;;;;10292352;28;20068;-52
2023/11/05 07:32:08;;;;;;;2.65;1.83;;;;;;;;;;10291583;28;20079;-52
2023/11/05 07:37:06;;;;;;;2.72;1.92;;;;;;;;;;10289352;28;20450;-50
2023/11/05 07:42:07;;;;;;;3.40;1.90;;;;;;;;;;10292948;28;20083;-63
2023/11/05 07:47:07;;;;;;;3.28;2.15;;;;;;;;;;10290534;28;20490;-57
2023/11/05 07:52:06;;;;;;;2.95;2.33;;;;;;;;;;10289442;28;20075;-56
2023/11/05 07:57:06;;;;;;;1.60;1.50;;;;;;;;;;10285583;28;20072;-56
2023/11/05 08:02:04;;;;;;;4.32;1.40;;;;;;;;;;10286703;28;20107;-52
2023/11/05 08:07:02;;;;;;;10.07;6.75;;;;;;;;;;10285923;28;20076;-56
2023/11/05 08:12:02;;;;;;;2.65;2.03;;;;;;;;;;10290673;28;20044;-51
2023/11/05 08:17:01;;;;;;;6.80;1.52;;;;;;;;;;10289299;28;20114;-50
2023/11/05 08:22:00;;;;;;;1.98;1.83;;;;;;;;;;10278509;28;20064;-56
2023/11/05 08:26:58;;;;;;;2.08;1.85;;;;;;;;;;10278615;28;20068;-53
2023/11/05 08:31:57;;;;;;;1.15;1.05;;;;;;;;;;10282465;28;20072;-53
2023/11/05 08:36:56;;;;;;;1.48;1.35;;;;;;;;;;10276203;28;20099;-55
2023/11/05 08:41:55;;;;;;;1.33;1.00;;;;;;;;;;10287945;28;20488;-60
2023/11/05 08:46:53;;;;;;;2.10;1.42;;;;;;;;;;10287211;28;20082;-58
2023/11/05 08:51:52;;;;;;;2.30;1.45;;;;;;;;;;10286967;28;20068;-57
2023/11/05 08:56:52;;;;;;;3.42;1.60;;;;;;;;;;10289017;28;20109;-56
2023/11/05 09:01:50;;;;;;;2.00;1.38;;;;;;;;;;10288536;28;20083;-57
2023/11/05 09:06:50;;;;;;;0.80;0.80;;;;;;;;;;10290171;28;20075;-55
2023/11/05 09:11:49;;;;;;;2.05;1.08;;;;;;;;;;10289019;28;20092;-55
2023/11/05 09:16:49;;;;;;;0.88;0.88;;;;;;;;;;10291718;28;20517;-55
2023/11/05 09:21:48;;;;;;;1.35;1.02;;;;;;;;;;10282538;28;20068;-56
2023/11/05 09:26:46;;;;;;;2.78;1.00;;;;;;;;;;10289513;28;20078;-55
2023/11/05 09:31:47;;;;;;;1.55;1.23;;;;;;;;;;10286804;28;20119;-58
2023/11/05 09:36:47;;;;;;;0.98;0.82;;;;;;;;;;10287551;28;20084;-58
2023/11/05 09:41:46;;;;;;;2.75;0.98;;;;;;;;;;10285414;28;20521;-57
2023/11/05 09:46:45;;;;;;;1.67;1.20;;;;;;;;;;10280020;28;20079;-58
2023/11/05 09:51:48;;;;;;;3.60;0.77;;;;;;;;;;10284064;28;20079;-56
2023/11/05 09:56:46;;;;;;;2.95;2.20;;;;;;;;;;10286876;28;20527;-55
2023/11/05 10:01:52;;;;;;;1.42;1.08;;;;;;;;;;10286658;28;20502;-59
2023/11/05 10:06:53;;;;;;;1.17;0.98;;;;;;;;;;10288848;28;20061;-55
2023/11/05 10:11:51;;;;;;;2.55;1.10;;;;;;;;;;10288245;28;20080;-55
2023/11/05 10:16:49;;;;;;;0.93;0.93;;;;;;;;;;10289218;28;20079;-56
2023/11/05 10:21:47;;;;;;;0.98;0.93;;;;;;;;;;10296020;28;20069;-57
2023/11/05 10:26:48;;;;;;;1.10;1.00;;;;;;;;;;10290334;28;20068;-56
2023/11/05 10:31:47;;;;;;;1.15;1.05;;;;;;;;;;10296345;28;20072;-57
2023/11/05 10:36:46;;;;;;;0.93;0.90;;;;;;;;;;10290479;28;20075;-57
2023/11/05 10:41:45;;;;;;;1.20;0.98;;;;;;;;;;10291401;28;20072;-57
2023/11/05 10:46:45;;;;;;;1.05;1.02;;;;;;;;;;10288571;28;20661;-56
2023/11/05 10:51:44;;;;;;;0.82;0.82;;;;;;;;;;10289597;28;20170;-58
2023/11/05 10:56:44;;;;;;;3.17;1.48;;;;;;;;;;10292799;28;20080;-57
2023/11/05 11:01:43;;;;;;;1.60;1.30;;;;;;;;;;10291234;28;20079;-57
2023/11/05 11:06:44;;;;;;;1.33;1.17;;;;;;;;;;10294073;28;20079;-57
2023/11/05 11:11:43;;;;;;;1.23;1.13;;;;;;;;;;10292849;28;20083;-57
2023/11/05 11:16:42;;;;;;;1.17;1.00;;;;;;;;;;10291846;28;20355;-57
2023/11/05 11:21:46;;;;;;;1.23;1.15;;;;;;;;;;10294394;28;20088;-55
2023/11/05 11:26:45;;;;;;;1.67;1.45;;;;;;;;;;10289001;28;20068;-57
2023/11/05 11:31:44;;;;;;;1.10;0.90;;;;;;;;;;10293981;28;20079;-57
2023/11/05 11:36:43;;;;;;;2.20;2.00;;;;;;;;;;10293385;28;20068;-58
2023/11/05 11:41:45;;;;;;;2.92;2.63;;;;;;;;;;10292786;28;20084;-57
2023/11/05 11:46:44;;;;;;;7.03;3.20;;;;;;;;;;10294728;28;20087;-57
2023/11/05 11:51:42;;;;;;;9.85;7.28;;;;;;;;;;10290613;28;20068;-57
2023/11/05 11:56:43;;;;;;;30.30;17.85;;;;;;;;;;10292439;28;20060;-57
2023/11/05 12:01:43;;;;;;;2.40;1.88;;;;;;;;;;10295653;28;20092;-57
2023/11/05 12:06:44;;;;;;;3.33;2.05;;;;;;;;;;10291192;28;20071;-57
2023/11/05 12:11:43;;;;;;;1.10;1.02;;;;;;;;;;10291083;28;20096;-58
2023/11/05 12:16:42;;;;;;;4.30;1.85;;;;;;;;;;10292925;28;20068;-57
2023/11/05 12:21:41;;;;;;;1.35;1.20;;;;;;;;;;10294295;28;20463;-57
2023/11/05 12:26:40;;;;;;;2.90;1.00;;;;;;;;;;10290395;28;20053;-58
2023/11/05 12:31:43;;;;;;;1.58;1.33;;;;;;;;;;10288956;28;20166;-58
2023/11/05 12:36:43;;;;;;;2.65;1.50;;;;;;;;;;10287612;28;20073;-57
2023/11/05 12:41:42;;;;;;;3.80;1.58;;;;;;;;;;10287541;28;20068;-57
2023/11/05 12:46:41;;;;;;;4.13;1.77;;;;;;;;;;10289289;28;20064;-58
2023/11/05 12:51:39;;;;;;;6.72;1.30;;;;;;;;;;10285724;28;20095;-57
2023/11/05 12:56:37;;;;;;;2.47;1.70;;;;;;;;;;10287069;28;20072;-57
2023/11/05 13:01:36;;;;;;;5.28;3.92;;;;;;;;;;10288996;28;20539;-57
2023/11/05 13:06:36;;;;;;;2.35;1.52;;;;;;;;;;10289812;28;20064;-57
2023/11/05 13:11:34;;;;;;;1.30;1.05;;;;;;;;;;10289290;28;20084;-58
2023/11/05 13:16:33;;;;;;;2.00;1.27;;;;;;;;;;10290903;28;20071;-59
2023/11/05 13:21:31;;;;;;;0.70;0.70;;;;;;;;;;10290186;28;20088;-58
2023/11/05 13:26:31;;;;;;;1.50;1.00;;;;;;;;;;10290033;28;20084;-58
2023/11/05 13:31:31;;;;;;;2.58;0.93;;;;;;;;;;10290375;28;20041;-57
2023/11/05 13:36:31;;;;;;;1.00;1.00;;;;;;;;;;10289757;28;20077;-58
2023/11/05 13:41:30;;;;;;;2.03;1.10;;;;;;;;;;10291633;28;20072;-56
2023/11/05 13:46:29;;;;;;;1.23;0.95;;;;;;;;;;10288635;28;20068;-56
2023/11/05 13:51:27;;;;;;;1.13;1.02;;;;;;;;;;10290023;28;20088;-57
2023/11/05 13:56:26;;;;;;;2.10;1.42;;;;;;;;;;10299243;28;20067;-56
2023/11/05 14:01:28;;;;;;;1.70;1.60;;;;;;;;;;10297410;28;20048;-59
2023/11/05 14:06:27;;;;;;;2.10;1.73;;;;;;;;;;10297246;28;20068;-57
2023/11/05 14:11:25;;;;;;;2.58;2.08;;;;;;;;;;10295894;28;20072;-57
2023/11/05 14:16:23;;;;;;;4.38;2.78;;;;;;;;;;10296029;28;20080;-58
2023/11/05 14:21:24;;;;;;;2.85;1.83;;;;;;;;;;10296610;28;20453;-58
2023/11/05 14:26:22;;;;;;;1.90;1.42;;;;;;;;;;10294680;28;20072;-58
2023/11/05 14:31:21;;;;;;;6.97;1.70;;;;;;;;;;10297576;28;20064;-55
2023/11/05 14:36:19;;;;;;;1.63;1.33;;;;;;;;;;10296895;28;20108;-58
2023/11/05 14:41:24;;;;;;;1.15;1.00;;;;;;;;;;10296169;28;20072;-58
2023/11/05 14:46:24;;;;;;;1.40;1.30;;;;;;;;;;10289863;28;20520;-58
2023/11/05 14:51:22;;;;;;;4.22;2.13;;;;;;;;;;10294373;28;20060;-58
2023/11/05 14:56:23;;;;;;;2.13;1.58;;;;;;;;;;10293301;28;20072;-56
2023/11/05 15:01:23;;;;;;;2.10;1.67;;;;;;;;;;10294589;28;20114;-57
2023/11/05 15:06:23;;;;;;;10.60;5.10;;;;;;;;;;10295440;28;20077;-56
2023/11/05 15:11:27;;;;;;;6.90;4.65;;;;;;;;;;10293998;28;20535;-56
2023/11/05 15:16:25;;;;;;;6.03;3.57;;;;;;;;;;10295118;28;20083;-57
2023/11/05 15:21:23;;;;;;;5.63;3.50;;;;;;;;;;10295564;28;20081;-58
2023/11/05 15:26:24;;;;;;;4.63;3.20;;;;;;;;;;10294446;28;20069;-56
2023/11/05 15:31:24;;;;;;;5.88;3.25;;;;;;;;;;10292328;28;20083;-58
2023/11/05 15:36:23;;;;;;;6.97;4.15;;;;;;;;;;10294557;28;20068;-56
2023/11/05 15:41:21;;;;;;;3.88;3.13;;;;;;;;;;10291775;28;20075;-56
2023/11/05 15:46:23;;;;;;;4.20;2.92;;;;;;;;;;10292902;28;20091;-57
2023/11/05 15:51:22;;;;;;;6.07;1.95;;;;;;;;;;10292863;28;20075;-57
2023/11/05 15:56:20;;;;;;;2.38;2.05;;;;;;;;;;10292918;28;20080;-55
2023/11/05 16:01:19;;;;;;;3.90;2.20;;;;;;;;;;10291903;28;20081;-58
2023/11/05 16:06:19;;;;;;;7.32;4.65;;;;;;;;;;10287726;28;20102;-58
2023/11/05 16:11:17;;;;;;;2.65;1.92;;;;;;;;;;10289060;28;20068;-57
2023/11/05 16:16:16;;;;;;;3.75;1.83;;;;;;;;;;10291038;28;20095;-59
2023/11/05 16:21:15;;;;;;;2.20;1.95;;;;;;;;;;10291197;28;20087;-57
2023/11/05 16:26:15;;;;;;;2.20;2.00;;;;;;;;;;10290909;28;20476;-59
2023/11/05 16:31:13;;;;;;;3.25;1.50;;;;;;;;;;10291849;28;20072;-57
2023/11/05 16:36:11;;;;;;;5.35;2.42;;;;;;;;;;10292225;28;20076;-57
2023/11/05 16:41:12;;;;;;;4.15;1.85;;;;;;;;;;10290992;28;20064;-58
2023/11/05 16:46:12;;;;;;;2.03;1.65;;;;;;;;;;10290963;28;20075;-56
2023/11/05 16:51:12;;;;;;;2.83;2.22;;;;;;;;;;10289732;28;20068;-57
2023/11/05 16:56:12;;;;;;;3.00;1.58;;;;;;;;;;10289895;28;20073;-55
2023/11/05 17:01:15;;;;;;;2.53;2.17;;;;;;;;;;10290013;28;20156;-58
2023/11/05 17:06:15;;;;;;;4.70;3.05;;;;;;;;;;10291736;28;20498;-59
2023/11/05 17:11:13;;;;;;;2.90;1.98;;;;;;;;;;10283429;28;20079;-58
2023/11/05 17:16:11;;;;;;;1.42;1.10;;;;;;;;;;10287571;28;20060;-59
2023/11/05 17:21:11;;;;;;;2.13;1.20;;;;;;;;;;10283631;28;20073;-58
2023/11/05 17:26:09;;;;;;;1.65;1.55;;;;;;;;;;10293677;28;20561;-59
2023/11/05 17:31:08;;;;;;;1.35;1.23;;;;;;;;;;10299841;28;20076;-58
2023/11/05 17:36:07;;;;;;;1.92;1.13;;;;;;;;;;10303035;28;20065;-56
2023/11/05 17:41:06;;;;;;;1.83;1.50;;;;;;;;;;10296436;28;20056;-59
2023/11/05 17:46:05;;;;;;;3.20;1.50;;;;;;;;;;10300515;28;20091;-58
2023/11/05 17:51:03;;;;;;;2.42;1.35;;;;;;;;;;10297828;28;20072;-59
2023/11/05 17:56:01;;;;;;;4.32;1.63;;;;;;;;;;10300411;28;20071;-58
2023/11/05 18:01:01;;;;;;;2.90;1.60;;;;;;;;;;10297825;28;20067;-57
2023/11/05 18:06:00;;;;;;;14.23;1.98;;;;;;;;;;10300416;28;20115;-58
2023/11/05 18:10:58;;;;;;;1.63;1.13;;;;;;;;;;10297008;28;20073;-59
2023/11/05 18:15:56;;;;;;;4.53;1.58;;;;;;;;;;10291068;28;20076;-57
2023/11/05 18:20:56;;;;;;;1.52;1.30;;;;;;;;;;10302494;28;20477;-55
2023/11/05 18:25:55;;;;;;;0.80;0.80;;;;;;;;;;10300636;28;20528;-57
2023/11/05 18:30:53;;;;;;;1.92;1.67;;;;;;;;;;10301553;28;20071;-58
2023/11/05 18:35:51;;;;;;;4.40;2.03;;;;;;;;;;10300270;28;20083;-57
2023/11/05 18:40:51;;;;;;;3.92;1.33;;;;;;;;;;10290442;28;20065;-58
2023/11/05 18:45:50;;;;;;;1.63;1.17;;;;;;;;;;10291150;28;20072;-57
2023/11/05 18:50:49;;;;;;;1.88;1.27;;;;;;;;;;10286185;28;20298;-58
2023/11/05 18:55:47;;;;;;;2.55;1.83;;;;;;;;;;10283701;28;20068;-57
2023/11/05 19:00:47;;;;;;;2.28;1.70;;;;;;;;;;10294142;28;20083;-55
2023/11/05 19:05:45;;;;;;;4.05;1.50;;;;;;;;;;10293571;28;20068;-54
2023/11/05 19:10:43;;;;;;;2.25;1.50;;;;;;;;;;10295885;28;20469;-56
2023/11/05 19:15:41;;;;;;;2.65;1.58;;;;;;;;;;10296363;28;20069;-55
2023/11/05 19:20:41;;;;;;;7.90;1.75;;;;;;;;;;10292553;28;20103;-55
2023/11/05 19:25:40;;;;;;;2.20;1.40;;;;;;;;;;10288802;28;20080;-54
2023/11/05 19:30:38;;;;;;;3.40;1.95;;;;;;;;;;10292667;28;20453;-55
2023/11/05 19:35:37;;;;;;;3.20;1.48;;;;;;;;;;10288259;28;20516;-56
2023/11/05 19:40:36;;;;;;;1.90;1.70;;;;;;;;;;10277900;28;20085;-56
2023/11/05 19:45:35;;;;;;;4.15;2.33;;;;;;;;;;10279458;28;20095;-56
2023/11/05 19:50:33;;;;;;;3.85;1.92;;;;;;;;;;10287579;28;20094;-59
2023/11/05 19:55:31;;;;;;;10.10;9.10;;;;;;;;;;10284454;28;20072;-59
2023/11/05 20:00:31;;;;;;;6.80;3.00;;;;;;;;;;10287660;28;20068;-58
2023/11/05 20:05:29;;;;;;;5.45;3.22;;;;;;;;;;10287718;28;20106;-56
2023/11/05 20:10:28;;;;;;;4.88;3.80;;;;;;;;;;10284161;28;20057;-58
2023/11/05 20:15:26;;;;;;;7.72;4.03;;;;;;;;;;10292948;28;20552;-57
2023/11/05 20:20:26;;;;;;;6.13;3.05;;;;;;;;;;10289146;28;20076;-59
2023/11/05 20:25:26;;;;;;;5.00;3.58;;;;;;;;;;10289913;28;20095;-59
2023/11/05 20:30:24;;;;;;;4.22;3.13;;;;;;;;;;10294471;28;20494;-58
2023/11/05 20:35:22;;;;;;;5.30;3.63;;;;;;;;;;10287080;28;20060;-57
2023/11/05 20:40:22;;;;;;;5.40;2.88;;;;;;;;;;10285013;28;20076;-60
2023/11/05 20:45:21;;;;;;;3.97;3.03;;;;;;;;;;10279030;28;20068;-58
2023/11/05 20:50:20;;;;;;;3.05;2.75;;;;;;;;;;10285120;28;20060;-59
2023/11/05 20:55:19;;;;;;;4.90;2.42;;;;;;;;;;10285759;28;20072;-59
2023/11/05 21:00:25;;;;;;;5.93;2.88;;;;;;;;;;10288963;28;20080;-57
2023/11/05 21:05:23;;;;;;;3.25;2.30;;;;;;;;;;10285738;28;20084;-58
2023/11/05 21:10:21;;;;;;;3.67;2.08;;;;;;;;;;10287740;28;20479;-59
2023/11/05 21:15:21;;;;;;;5.57;2.53;;;;;;;;;;10284106;28;20060;-59
2023/11/05 21:20:19;;;;;;;2.75;1.88;;;;;;;;;;10285597;28;20320;-59
2023/11/05 21:25:17;;;;;;;5.57;1.77;;;;;;;;;;10284459;28;20077;-59
2023/11/05 21:30:16;;;;;;;2.65;1.83;;;;;;;;;;10284806;28;20067;-59
2023/11/05 21:35:15;;;;;;;2.83;1.92;;;;;;;;;;10288087;28;20402;-59
2023/11/05 21:40:14;;;;;;;3.70;1.80;;;;;;;;;;10283644;28;20084;-58
2023/11/05 21:45:12;;;;;;;1.63;1.52;;;;;;;;;;10280242;28;20539;-57
2023/11/05 21:50:10;;;;;;;2.08;1.88;;;;;;;;;;10284051;28;20612;-58
2023/11/05 21:55:10;;;;;;;3.20;1.90;;;;;;;;;;10286082;28;20071;-59
2023/11/05 22:00:10;;;;;;;3.42;1.42;;;;;;;;;;10285414;28;20071;-57
2023/11/05 22:05:08;;;;;;;4.15;1.35;;;;;;;;;;10284150;28;20525;-57
2023/11/05 22:10:07;;;;;;;4.30;1.63;;;;;;;;;;10288733;28;20064;-55
2023/11/05 22:15:08;;;;;;;1.40;1.30;;;;;;;;;;10291947;28;20083;-56
2023/11/05 22:20:09;;;;;;;3.15;2.55;;;;;;;;;;10293045;28;20077;-57
2023/11/05 22:25:08;;;;;;;2.70;1.38;;;;;;;;;;10296808;28;20080;-57
2023/11/05 22:30:08;;;;;;;2.05;1.30;;;;;;;;;;10296492;28;20083;-59
2023/11/05 22:35:07;;;;;;;1.65;1.10;;;;;;;;;;10294997;28;20080;-59
2023/11/05 22:40:07;;;;;;;1.52;1.40;;;;;;;;;;10294584;28;20072;-58
2023/11/05 22:45:06;;;;;;;3.28;0.95;;;;;;;;;;10283958;28;20088;-58
2023/11/05 22:50:06;;;;;;;0.60;0.60;;;;;;;;;;10283303;28;20072;-58
2023/11/05 22:55:05;;;;;;;0.95;0.95;;;;;;;;;;10289274;28;20076;-59
2023/11/05 23:00:05;;;;;;;1.33;1.10;;;;;;;;;;10280068;28;20075;-58
2023/11/05 23:05:04;;;;;;;1.63;1.40;;;;;;;;;;10282548;28;20099;-57
2023/11/05 23:10:04;;;;;;;0.98;0.73;;;;;;;;;;10281641;28;20071;-57
2023/11/05 23:15:03;;;;;;;1.65;1.55;;;;;;;;;;10280638;28;20083;-57
2023/11/05 23:20:01;;;;;;;2.00;1.00;;;;;;;;;;10282772;28;20080;-59
2023/11/05 23:24:59;;;;;;;3.60;1.25;;;;;;;;;;10283528;28;20116;-58
2023/11/05 23:29:59;;;;;;;1.67;1.23;;;;;;;;;;10288618;28;20076;-56
2023/11/05 23:34:57;;;;;;;1.08;1.00;;;;;;;;;;10289207;28;20091;-57
2023/11/05 23:39:55;;;;;;;1.20;1.10;;;;;;;;;;10289617;28;20068;-58
2023/11/05 23:44:54;;;;;;;3.40;1.23;;;;;;;;;;10290662;28;20069;-57
2023/11/05 23:49:53;;;;;;;2.38;1.02;;;;;;;;;;10292719;28;20076;-58
2023/11/05 23:54:51;;;;;;;2.25;1.00;;;;;;;;;;10289571;28;20076;-57
2023/11/05 23:59:50;;;;;;;0.90;0.90;;;;;;;;;;10303021;28;20057;-57
